AYPY/POM METAR and TAF weather

Enter ICAO airport designator
Station Type Date Time Source
AYPY METAR 2019/12/12 11:00 UTC NOAA

AYPY 121100Z 30003KT 9999 FEW050 27/25 Q1010


Station Type Date Time Source
AYPY Decoded METAR 2019/12/12 11:00 UTC NOAA

Moresby, Papua New Guinea (AYPY) 09-26S 147-13E 49M
Dec 12, 2019 - 06:00 AM EST / 2019.12.12 1100 UTC
Wind: from the WNW (300 degrees) at 3 MPH (3 KT):0
Visibility: greater than 7 mile(s):0
Sky conditions: mostly clear
Temperature: 80 F (27 C)
Dew Point: 77 F (25 C)
Relative Humidity: 88%
Pressure (altimeter): 29.83 in. Hg (1010 hPa)
ob: AYPY 121100Z 30003KT 9999 FEW050 27/25 Q1010
cycle: 11

Station Type Date Time Source
AYPY TAF 2019/12/12 12:33 UTC NOAA

TAF TAF AYPY 120940Z 1212/1312 32010KT 9999 SCT040

Example: see airport list